createdAt,value
2024-01-16T00:02:09.409Z,17.40
2024-01-16T00:04:38.496Z,17.13
2024-01-16T00:07:06.372Z,17.77
2024-01-16T00:09:36.656Z,17.63
2024-01-16T00:12:05.397Z,17.15
2024-01-16T00:14:35.893Z,17.30
2024-01-16T00:17:03.160Z,17.25
2024-01-16T00:19:31.095Z,17.30
2024-01-16T00:21:58.250Z,17.58
2024-01-16T00:24:25.227Z,17.17
2024-01-16T00:26:53.304Z,16.67
2024-01-16T00:29:22.140Z,17.83
2024-01-16T00:31:49.297Z,17.17
2024-01-16T00:34:16.420Z,17.70
2024-01-16T00:36:43.532Z,17.67
2024-01-16T00:39:10.870Z,18.10
2024-01-16T00:41:39.262Z,18.45
2024-01-16T00:44:06.505Z,17.30
2024-01-16T00:46:36.132Z,18.55
2024-01-16T00:49:03.416Z,17.92
2024-01-16T00:51:31.561Z,17.58
2024-01-16T00:53:59.664Z,17.55
2024-01-16T00:56:33.552Z,18.10
2024-01-16T00:59:00.553Z,18.17
2024-01-16T01:01:28.680Z,18.27
2024-01-16T01:03:57.281Z,17.55
2024-01-16T01:06:24.571Z,18.13
2024-01-16T01:08:52.819Z,18.00
2024-01-16T01:11:19.943Z,18.08
2024-01-16T01:13:47.480Z,18.13
2024-01-16T01:16:14.668Z,18.48
2024-01-16T01:18:41.940Z,18.15
2024-01-16T01:21:10.476Z,17.85
2024-01-16T01:23:37.566Z,17.33
2024-01-16T01:26:06.074Z,17.88
2024-01-16T01:28:33.178Z,18.23
2024-01-16T01:31:00.436Z,17.75
2024-01-16T01:33:27.791Z,17.73
2024-01-16T01:35:56.108Z,18.27
2024-01-16T01:38:23.318Z,17.90
2024-01-16T01:40:50.397Z,18.38
2024-01-16T01:43:20.969Z,18.27
2024-01-16T01:46:04.301Z,17.52
2024-01-16T01:48:33.395Z,18.45
2024-01-16T01:51:01.905Z,18.30
2024-01-16T01:53:29.899Z,18.15
2024-01-16T01:55:57.216Z,18.13
2024-01-16T01:58:25.079Z,17.95
2024-01-16T02:00:52.444Z,17.50
2024-01-16T02:03:20.358Z,18.02
2024-01-16T02:05:47.857Z,18.05
2024-01-16T02:08:16.675Z,18.20
2024-01-16T02:10:47.368Z,17.85
2024-01-16T02:13:14.452Z,17.98
2024-01-16T02:15:42.511Z,17.83
2024-01-16T02:18:09.670Z,17.67
2024-01-16T02:20:37.245Z,18.13
2024-01-16T02:23:05.717Z,17.83
2024-01-16T02:25:32.916Z,17.65
2024-01-16T02:28:01.876Z,17.45
2024-01-16T02:30:29.025Z,17.40
2024-01-16T02:32:56.646Z,17.90
2024-01-16T02:35:23.785Z,18.05
2024-01-16T02:37:51.008Z,17.58
2024-01-16T02:40:18.305Z,17.80
2024-01-16T02:42:45.469Z,17.70
2024-01-16T02:45:12.560Z,18.20
2024-01-16T02:47:39.748Z,17.63
2024-01-16T02:50:07.419Z,17.95
2024-01-16T02:52:34.761Z,17.25
2024-01-16T02:55:01.859Z,18.08
2024-01-16T02:57:28.921Z,17.75
2024-01-16T02:59:56.001Z,18.33
2024-01-16T03:02:24.093Z,17.85
2024-01-16T03:04:51.494Z,18.17
2024-01-16T03:07:18.599Z,18.75
2024-01-16T03:09:45.642Z,17.90
2024-01-16T03:12:12.922Z,18.17
2024-01-16T03:14:40.403Z,17.67
2024-01-16T03:17:08.714Z,17.95
2024-01-16T03:19:35.925Z,17.88
2024-01-16T03:22:03.027Z,18.52
2024-01-16T03:24:30.399Z,18.55
2024-01-16T03:26:57.591Z,18.02
2024-01-16T03:29:24.836Z,18.05
2024-01-16T03:31:51.964Z,18.25
2024-01-16T03:34:19.066Z,17.50
2024-01-16T03:36:47.358Z,18.13
2024-01-16T03:39:15.701Z,18.40
2024-01-16T03:41:43.068Z,17.08
2024-01-16T03:44:10.645Z,17.35
2024-01-16T03:46:37.848Z,17.92
2024-01-16T03:49:04.887Z,18.25
2024-01-16T03:51:31.996Z,18.08
2024-01-16T03:53:59.222Z,18.08
2024-01-16T03:56:26.441Z,17.88
2024-01-16T03:58:53.663Z,17.85
2024-01-16T04:01:34.603Z,18.40
2024-01-16T04:04:01.749Z,18.10
2024-01-16T04:06:30.450Z,17.92
2024-01-16T04:08:57.644Z,18.20
2024-01-16T04:11:24.680Z,17.55
2024-01-16T04:13:51.982Z,18.08
2024-01-16T04:16:19.023Z,18.23
2024-01-16T04:18:46.391Z,18.70
2024-01-16T04:21:13.620Z,18.45
2024-01-16T04:23:42.502Z,18.27
2024-01-16T04:26:09.877Z,17.90
2024-01-16T04:28:38.447Z,18.92
2024-01-16T04:31:06.227Z,19.40
2024-01-16T04:33:33.572Z,18.75
2024-01-16T04:36:00.857Z,18.83
2024-01-16T04:38:27.913Z,18.13
2024-01-16T04:40:55.081Z,18.27
2024-01-16T04:43:22.206Z,18.67
2024-01-16T04:45:49.358Z,18.98
2024-01-16T04:48:18.460Z,18.40
2024-01-16T04:50:47.027Z,18.25
2024-01-16T04:53:17.154Z,18.35
2024-01-16T04:55:44.222Z,18.58
2024-01-16T04:58:11.709Z,18.52
2024-01-16T05:00:38.792Z,19.23
2024-01-16T05:03:07.270Z,19.55
2024-01-16T05:05:34.527Z,18.98
2024-01-16T05:08:05.008Z,17.65
2024-01-16T05:10:32.669Z,17.80
2024-01-16T05:13:00.063Z,17.50
2024-01-16T05:15:27.912Z,17.48
2024-01-16T05:17:55.298Z,17.20
2024-01-16T05:20:23.087Z,17.70
2024-01-16T05:22:50.324Z,17.75
2024-01-16T05:25:19.283Z,17.55
2024-01-16T05:27:46.406Z,18.17
2024-01-16T05:30:13.711Z,18.83
2024-01-16T05:32:42.871Z,18.15
2024-01-16T05:35:11.203Z,19.33
2024-01-16T05:37:38.441Z,19.42
2024-01-16T05:40:07.084Z,19.20
2024-01-16T05:42:34.248Z,18.38
2024-01-16T05:45:01.545Z,18.75
2024-01-16T05:47:30.274Z,18.60
2024-01-16T05:49:58.329Z,21.40
2024-01-16T05:52:25.391Z,22.73
2024-01-16T05:54:52.502Z,21.00
2024-01-16T05:57:19.901Z,19.67
2024-01-16T05:59:48.344Z,18.92
2024-01-16T06:02:15.769Z,18.85
2024-01-16T06:04:42.924Z,18.67
2024-01-16T06:07:10.124Z,18.40
2024-01-16T06:09:43.380Z,18.88
2024-01-16T06:12:10.545Z,19.13
2024-01-16T06:14:38.037Z,19.45
2024-01-16T06:17:07.313Z,18.80
2024-01-16T06:19:34.608Z,18.50
2024-01-16T06:22:01.825Z,22.75
2024-01-16T06:24:29.265Z,22.17
2024-01-16T06:26:57.441Z,20.85
2024-01-16T06:29:31.778Z,18.23
2024-01-16T06:32:02.635Z,19.27
2024-01-16T06:34:31.191Z,18.33
2024-01-16T06:36:58.437Z,18.90
2024-01-16T06:39:25.470Z,21.80
2024-01-16T06:41:52.642Z,18.63
2024-01-16T06:44:20.682Z,19.55
2024-01-16T06:46:47.983Z,21.05
2024-01-16T06:49:15.263Z,21.00
2024-01-16T06:51:43.892Z,23.73
2024-01-16T06:54:10.999Z,19.50
2024-01-16T06:56:39.501Z,19.40
2024-01-16T06:59:08.644Z,19.70
2024-01-16T07:01:37.217Z,19.73
2024-01-16T07:04:04.756Z,18.98
2024-01-16T07:06:31.873Z,18.45
2024-01-16T07:08:58.953Z,18.92
2024-01-16T07:11:27.079Z,19.05
2024-01-16T07:13:54.116Z,18.55
2024-01-16T07:16:22.518Z,18.08
2024-01-16T07:18:49.786Z,18.98
2024-01-16T07:21:20.363Z,18.33
2024-01-16T07:23:47.567Z,18.73
2024-01-16T07:26:14.797Z,18.70
2024-01-16T07:28:41.957Z,18.88
2024-01-16T07:31:10.820Z,18.00
2024-01-16T07:33:39.101Z,18.42
2024-01-16T07:36:07.932Z,18.38
2024-01-16T07:38:35.204Z,18.50
2024-01-16T07:41:02.260Z,18.45
2024-01-16T07:43:30.461Z,17.48
2024-01-16T07:45:57.677Z,17.33
2024-01-16T07:48:25.155Z,16.88
2024-01-16T07:50:52.496Z,21.27
2024-01-16T07:53:19.979Z,17.70
2024-01-16T07:55:46.981Z,18.27
2024-01-16T07:58:14.615Z,18.15
2024-01-16T08:00:42.205Z,17.67
2024-01-16T08:03:13.197Z,17.13
2024-01-16T08:05:40.648Z,17.33
2024-01-16T08:08:11.402Z,17.13
2024-01-16T08:10:38.967Z,17.33
2024-01-16T08:13:06.195Z,17.20
2024-01-16T08:15:34.041Z,17.08
2024-01-16T08:18:01.376Z,16.98
2024-01-16T08:20:28.651Z,17.33
2024-01-16T08:22:55.845Z,18.38
2024-01-16T08:25:23.073Z,18.95
2024-01-16T08:27:50.124Z,18.15
2024-01-16T08:30:17.837Z,18.48
2024-01-16T08:32:44.996Z,17.88
2024-01-16T08:35:12.318Z,18.88
2024-01-16T08:37:39.731Z,18.00
2024-01-16T08:40:07.850Z,17.75
2024-01-16T08:42:34.918Z,17.73
2024-01-16T08:45:03.044Z,17.35
2024-01-16T08:47:30.263Z,18.17
2024-01-16T08:49:57.593Z,20.05
2024-01-16T08:52:25.220Z,24.55
2024-01-16T08:54:52.407Z,18.00
2024-01-16T08:57:20.525Z,17.95
2024-01-16T08:59:49.038Z,17.52
2024-01-16T09:02:16.162Z,17.80
2024-01-16T09:04:44.067Z,18.17
2024-01-16T09:07:11.351Z,17.10
2024-01-16T09:09:38.607Z,17.52
2024-01-16T09:12:06.193Z,17.25
2024-01-16T09:14:33.239Z,18.10
2024-01-16T09:17:00.402Z,17.30
2024-01-16T09:19:28.090Z,17.30
2024-01-16T09:21:55.272Z,17.00
2024-01-16T09:24:22.644Z,17.00
2024-01-16T09:26:50.088Z,17.02
2024-01-16T09:29:18.482Z,16.98
2024-01-16T09:31:45.631Z,16.67
2024-01-16T09:34:14.556Z,17.70
2024-01-16T09:36:42.050Z,19.25
2024-01-16T09:39:09.645Z,17.33
2024-01-16T09:41:36.865Z,16.50
2024-01-16T09:44:04.707Z,16.38
2024-01-16T09:46:33.564Z,17.05
2024-01-16T09:49:03.471Z,17.48
2024-01-16T09:51:31.097Z,15.60
2024-01-16T09:53:58.504Z,15.45
2024-01-16T09:56:26.366Z,15.95
2024-01-16T09:59:00.782Z,15.93
2024-01-16T10:01:29.908Z,17.40
2024-01-16T10:03:57.363Z,16.77
2024-01-16T10:06:26.405Z,17.02
2024-01-16T10:08:53.678Z,16.63
2024-01-16T10:11:20.932Z,16.00
2024-01-16T10:13:51.084Z,16.10
2024-01-16T10:16:18.307Z,16.38
2024-01-16T10:18:45.714Z,15.98
2024-01-16T10:21:23.787Z,16.25
2024-01-16T10:23:52.038Z,15.68
2024-01-16T10:26:21.964Z,15.95
2024-01-16T10:28:50.169Z,16.52
2024-01-16T10:31:17.499Z,16.10
2024-01-16T10:33:45.341Z,16.65
2024-01-16T10:36:22.145Z,16.17
2024-01-16T10:38:49.379Z,15.80
2024-01-16T10:41:26.464Z,15.93
2024-01-16T10:44:13.907Z,17.63
2024-01-16T10:46:41.076Z,17.40
2024-01-16T10:49:09.704Z,16.23
2024-01-16T10:51:36.782Z,15.80
2024-01-16T10:54:12.976Z,16.33
2024-01-16T10:56:45.397Z,15.25
2024-01-16T10:59:25.776Z,15.48
2024-01-16T11:01:57.467Z,14.82
2024-01-16T11:04:25.473Z,15.70
2024-01-16T11:06:56.099Z,15.75
2024-01-16T11:09:25.243Z,16.15
2024-01-16T11:11:58.218Z,15.60
2024-01-16T11:14:27.388Z,15.20
2024-01-16T11:16:58.059Z,14.75
2024-01-16T11:19:38.837Z,15.50
2024-01-16T11:22:15.910Z,15.18
2024-01-16T11:24:43.961Z,14.70
2024-01-16T11:27:24.733Z,15.32
2024-01-16T11:29:52.517Z,15.52
2024-01-16T11:32:39.758Z,16.30
2024-01-16T11:35:10.266Z,15.60
2024-01-16T11:37:41.035Z,16.17
2024-01-16T11:40:33.205Z,15.65
2024-01-16T11:43:21.471Z,15.55
2024-01-16T11:45:52.796Z,15.60
2024-01-16T11:48:21.376Z,15.63
2024-01-16T11:50:48.993Z,16.35
2024-01-16T11:53:35.406Z,16.23
2024-01-16T11:56:31.021Z,16.08
2024-01-16T11:59:53.529Z,16.05
2024-01-16T12:02:26.413Z,15.05
2024-01-16T12:04:55.936Z,14.85
2024-01-16T12:07:23.396Z,15.40
2024-01-16T12:09:50.620Z,15.82
2024-01-16T12:12:19.752Z,15.38
2024-01-16T12:14:56.452Z,14.52
2024-01-16T12:17:23.838Z,16.20
2024-01-16T12:19:51.154Z,16.52
2024-01-16T12:22:24.168Z,17.13
2024-01-16T12:24:51.740Z,16.88
2024-01-16T12:27:18.827Z,19.05
2024-01-16T12:29:47.117Z,17.15
2024-01-16T12:32:16.578Z,17.20
2024-01-16T12:34:49.978Z,16.83
2024-01-16T12:37:18.389Z,16.80
2024-01-16T12:39:45.632Z,15.90
2024-01-16T12:42:14.122Z,15.55
2024-01-16T12:44:42.048Z,15.00
2024-01-16T12:47:09.440Z,15.23
2024-01-16T12:49:46.681Z,18.98
2024-01-16T12:52:25.838Z,15.57
2024-01-16T12:55:05.936Z,15.23
2024-01-16T12:57:33.144Z,14.93
2024-01-16T13:00:02.539Z,15.43
2024-01-16T13:02:29.792Z,15.18
2024-01-16T13:05:01.603Z,15.38
2024-01-16T13:07:29.216Z,15.88
2024-01-16T13:10:13.958Z,15.18
2024-01-16T13:12:42.212Z,15.75
2024-01-16T13:15:12.547Z,15.40
2024-01-16T13:17:40.316Z,15.77
2024-01-16T13:20:11.480Z,15.30
2024-01-16T13:22:44.754Z,15.80
2024-01-16T13:25:15.235Z,16.27
2024-01-16T13:27:42.384Z,15.80
2024-01-16T13:30:10.574Z,15.90
2024-01-16T13:32:39.011Z,15.38
2024-01-16T13:35:10.065Z,15.10
2024-01-16T13:37:39.299Z,14.80
2024-01-16T13:40:17.239Z,14.93
2024-01-16T13:42:44.472Z,14.75
2024-01-16T13:45:14.828Z,15.70
2024-01-16T13:47:42.705Z,14.82
2024-01-16T13:50:11.158Z,14.65
2024-01-16T13:52:38.298Z,14.82
2024-01-16T13:55:07.040Z,15.05
2024-01-16T13:57:38.005Z,15.25
2024-01-16T14:00:06.840Z,15.85
2024-01-16T14:02:40.920Z,17.58
2024-01-16T14:05:12.332Z,20.08
2024-01-16T14:07:41.495Z,27.98
2024-01-16T14:10:15.211Z,18.63
2024-01-16T14:12:46.410Z,18.27
2024-01-16T14:15:18.095Z,15.77
2024-01-16T14:17:53.063Z,15.57
2024-01-16T14:20:28.880Z,16.65
2024-01-16T14:22:58.108Z,16.63
2024-01-16T14:25:25.232Z,17.40
2024-01-16T14:28:05.102Z,17.10
2024-01-16T14:30:38.908Z,17.30
2024-01-16T14:33:09.713Z,17.40
2024-01-16T14:35:37.062Z,16.67
2024-01-16T14:38:04.289Z,17.55
2024-01-16T14:40:31.311Z,17.70
2024-01-16T14:42:59.590Z,18.13
2024-01-16T14:45:28.491Z,17.13
2024-01-16T14:47:55.859Z,16.83
2024-01-16T14:50:23.671Z,17.30
2024-01-16T14:52:52.776Z,17.15
2024-01-16T14:55:21.771Z,16.85
2024-01-16T14:57:54.336Z,17.27
2024-01-16T15:00:21.558Z,16.27
2024-01-16T15:02:51.935Z,16.42
2024-01-16T15:05:21.039Z,16.88
2024-01-16T15:07:49.196Z,16.60
2024-01-16T15:10:17.989Z,16.55
2024-01-16T15:12:48.700Z,16.77
2024-01-16T15:15:16.805Z,16.83
2024-01-16T15:17:45.408Z,15.90
2024-01-16T15:20:13.130Z,16.20
2024-01-16T15:22:44.781Z,15.27
2024-01-16T15:25:17.055Z,15.88
2024-01-16T15:27:46.982Z,16.13
2024-01-16T15:30:16.028Z,16.63
2024-01-16T15:32:43.651Z,16.73
2024-01-16T15:35:12.759Z,16.50
2024-01-16T15:37:40.124Z,17.88
2024-01-16T15:40:08.188Z,17.75
2024-01-16T15:42:40.422Z,17.95
2024-01-16T15:45:08.474Z,17.98
2024-01-16T15:47:35.839Z,19.20
2024-01-16T15:50:05.907Z,18.83
2024-01-16T15:52:33.450Z,18.65
2024-01-16T15:55:01.009Z,19.63
2024-01-16T15:57:28.902Z,19.17
2024-01-16T15:59:57.035Z,18.80
2024-01-16T16:02:24.740Z,18.48
2024-01-16T16:04:53.419Z,19.98
2024-01-16T16:07:21.606Z,20.10
2024-01-16T16:09:49.630Z,19.38
2024-01-16T16:12:19.253Z,20.02
2024-01-16T16:14:47.801Z,19.42
2024-01-16T16:17:15.347Z,19.08
2024-01-16T16:19:42.957Z,20.63
2024-01-16T16:22:10.150Z,17.80
2024-01-16T16:24:37.332Z,19.63
2024-01-16T16:27:22.321Z,18.88
2024-01-16T16:29:49.561Z,19.42
2024-01-16T16:32:16.733Z,18.58
2024-01-16T16:34:46.149Z,20.30
2024-01-16T16:37:13.343Z,19.83
2024-01-16T16:39:41.944Z,18.70
2024-01-16T16:42:09.159Z,21.15
2024-01-16T16:44:36.413Z,26.38
2024-01-16T16:47:04.371Z,29.80
2024-01-16T16:49:31.791Z,28.33
2024-01-16T16:51:58.869Z,19.85
2024-01-16T16:54:26.991Z,19.23
2024-01-16T16:56:55.805Z,21.08
2024-01-16T16:59:24.385Z,21.70
2024-01-16T17:01:54.044Z,21.70
2024-01-16T17:04:21.403Z,22.83
2024-01-16T17:06:48.810Z,21.52
2024-01-16T17:09:21.043Z,17.27
2024-01-16T17:11:48.306Z,17.45
2024-01-16T17:14:17.574Z,17.55
2024-01-16T17:16:44.910Z,18.23
2024-01-16T17:19:12.568Z,17.75
2024-01-16T17:21:41.636Z,18.27
2024-01-16T17:24:09.089Z,19.42
2024-01-16T17:26:36.977Z,19.70
2024-01-16T17:29:04.706Z,21.00
2024-01-16T17:31:32.740Z,21.55
2024-01-16T17:34:00.083Z,22.05
2024-01-16T17:36:30.274Z,20.95
2024-01-16T17:39:01.197Z,21.60
2024-01-16T17:41:31.006Z,19.80
2024-01-16T17:43:58.696Z,20.02
2024-01-16T17:46:25.868Z,20.77
2024-01-16T17:48:55.815Z,23.23
2024-01-16T17:51:23.387Z,23.48
2024-01-16T17:53:51.030Z,19.25
2024-01-16T17:56:18.265Z,18.65
2024-01-16T17:58:45.520Z,18.67
2024-01-16T18:01:13.975Z,19.10
2024-01-16T18:03:48.865Z,20.98
2024-01-16T18:06:18.209Z,19.45
2024-01-16T18:08:46.257Z,19.13
2024-01-16T18:11:14.466Z,19.70
2024-01-16T18:13:43.909Z,20.35
2024-01-16T18:16:12.839Z,19.35
2024-01-16T18:18:42.071Z,19.73
2024-01-16T18:21:13.657Z,20.27
2024-01-16T18:23:42.922Z,19.08
2024-01-16T18:26:12.370Z,20.92
2024-01-16T18:28:41.563Z,20.15
2024-01-16T18:31:10.652Z,21.08
2024-01-16T18:33:40.128Z,20.65
2024-01-16T18:36:07.556Z,21.02
2024-01-16T18:38:34.752Z,19.88
2024-01-16T18:41:02.349Z,19.77
2024-01-16T18:43:30.418Z,19.38
2024-01-16T18:45:58.249Z,20.50
2024-01-16T18:48:25.523Z,19.95
2024-01-16T18:50:56.162Z,20.85
2024-01-16T18:53:23.601Z,21.80
2024-01-16T18:55:53.978Z,21.67
2024-01-16T18:58:22.356Z,22.85
2024-01-16T19:00:51.776Z,21.60
2024-01-16T19:03:20.624Z,20.50
2024-01-16T19:05:48.261Z,19.85
2024-01-16T19:08:18.537Z,19.80
2024-01-16T19:10:46.290Z,19.83
2024-01-16T19:13:15.722Z,20.48
2024-01-16T19:15:42.841Z,20.95
2024-01-16T19:18:11.618Z,19.73
2024-01-16T19:20:38.849Z,23.77
2024-01-16T19:23:06.609Z,25.58
2024-01-16T19:25:34.332Z,23.98
2024-01-16T19:28:01.454Z,23.92
2024-01-16T19:30:30.118Z,23.15
2024-01-16T19:32:57.483Z,22.65
2024-01-16T19:35:24.836Z,22.48
2024-01-16T19:37:53.027Z,21.73
2024-01-16T19:40:20.178Z,21.80
2024-01-16T19:42:47.305Z,21.95
2024-01-16T19:45:19.426Z,21.25
2024-01-16T19:47:46.483Z,21.70
2024-01-16T19:50:22.212Z,20.98
2024-01-16T19:52:52.159Z,20.95
2024-01-16T19:55:23.553Z,22.38
2024-01-16T19:57:51.689Z,21.42
2024-01-16T20:00:19.137Z,21.88
2024-01-16T20:02:46.556Z,21.67
2024-01-16T20:05:17.116Z,22.70
2024-01-16T20:07:47.868Z,21.65
2024-01-16T20:10:17.340Z,20.95
2024-01-16T20:12:46.484Z,21.67
2024-01-16T20:15:23.133Z,20.98
2024-01-16T20:17:54.902Z,20.98
2024-01-16T20:20:22.677Z,20.60
2024-01-16T20:22:49.944Z,20.60
2024-01-16T20:25:20.645Z,20.63
2024-01-16T20:27:49.433Z,20.30
2024-01-16T20:30:17.786Z,20.58
2024-01-16T20:32:46.712Z,19.42
2024-01-16T20:35:15.472Z,20.05
2024-01-16T20:37:43.162Z,19.75
2024-01-16T20:40:11.498Z,21.02
2024-01-16T20:42:39.002Z,20.63
2024-01-16T20:45:07.063Z,21.40
2024-01-16T20:47:34.854Z,21.10
2024-01-16T20:50:02.024Z,33.63
2024-01-16T20:52:30.367Z,30.88
2024-01-16T20:55:02.716Z,23.38
2024-01-16T20:57:31.655Z,22.30
2024-01-16T20:59:59.075Z,22.00
2024-01-16T21:02:26.306Z,22.63
2024-01-16T21:04:54.778Z,22.17
2024-01-16T21:07:24.118Z,21.73
2024-01-16T21:09:51.339Z,20.80
2024-01-16T21:12:20.807Z,20.92
2024-01-16T21:14:47.836Z,20.70
2024-01-16T21:17:15.425Z,20.38
2024-01-16T21:19:42.962Z,19.77
2024-01-16T21:22:10.324Z,21.13
2024-01-16T21:24:38.179Z,22.70
2024-01-16T21:27:07.662Z,22.55
2024-01-16T21:29:34.903Z,21.38
2024-01-16T21:32:02.028Z,21.77
2024-01-16T21:34:29.123Z,21.83
2024-01-16T21:36:56.744Z,20.73
2024-01-16T21:39:23.993Z,21.60
2024-01-16T21:41:51.189Z,20.60
2024-01-16T21:44:18.390Z,21.40
2024-01-16T21:46:45.395Z,22.45
2024-01-16T21:49:12.681Z,22.10
2024-01-16T21:51:39.997Z,22.80
2024-01-16T21:54:07.449Z,21.63
2024-01-16T21:56:34.959Z,21.35
2024-01-16T21:59:02.298Z,21.40
2024-01-16T22:01:31.008Z,21.85
2024-01-16T22:03:58.680Z,20.50
2024-01-16T22:06:26.407Z,21.55
2024-01-16T22:08:54.798Z,21.60
2024-01-16T22:11:22.240Z,21.85
2024-01-16T22:13:49.507Z,20.77
2024-01-16T22:16:16.831Z,20.73
2024-01-16T22:18:47.559Z,21.35
2024-01-16T22:21:16.980Z,21.50
2024-01-16T22:23:48.125Z,20.90
2024-01-16T22:26:16.090Z,21.63
2024-01-16T22:28:45.941Z,22.10
2024-01-16T22:31:13.165Z,21.25
2024-01-16T22:33:40.478Z,22.30
2024-01-16T22:36:10.508Z,21.88
2024-01-16T22:38:46.655Z,21.63
2024-01-16T22:41:13.873Z,21.17
2024-01-16T22:43:41.156Z,21.45
2024-01-16T22:46:09.120Z,21.55
2024-01-16T22:48:37.104Z,21.10
2024-01-16T22:51:04.550Z,20.95
2024-01-16T22:53:31.786Z,21.23
2024-01-16T22:55:59.513Z,20.90
2024-01-16T22:58:27.213Z,21.95
2024-01-16T23:00:55.204Z,21.38
2024-01-16T23:03:24.465Z,21.10
2024-01-16T23:05:52.811Z,20.90
2024-01-16T23:08:20.384Z,22.48
2024-01-16T23:10:48.608Z,21.65
2024-01-16T23:13:15.624Z,22.15
2024-01-16T23:15:43.780Z,21.65
2024-01-16T23:18:11.097Z,21.55
2024-01-16T23:20:38.291Z,21.17
2024-01-16T23:23:08.008Z,21.50
2024-01-16T23:25:36.608Z,22.83
2024-01-16T23:28:04.259Z,21.58
2024-01-16T23:30:35.213Z,22.35
2024-01-16T23:33:04.971Z,22.55
2024-01-16T23:35:32.340Z,23.30
2024-01-16T23:38:01.425Z,22.85
2024-01-16T23:40:28.650Z,23.50
2024-01-16T23:42:57.020Z,23.67
2024-01-16T23:45:30.812Z,23.63
2024-01-16T23:48:00.867Z,23.05
2024-01-16T23:50:28.280Z,23.58
2024-01-16T23:52:55.945Z,23.40
2024-01-16T23:55:24.324Z,23.10
2024-01-16T23:57:53.131Z,24.85
